Time;durP1;ratioP1;P1;durP2;ratioP2;P2;SDS_P1;SDS_P2;PMS_P1;PMS_P2;Temp;Humidity;BMP_temperature;BMP_pressure;BME280_temperature;BME280_humidity;BME280_pressure;Samples;Min_cycle;Max_cycle;Signal;HPM_P1;HPM_P2
2023/04/05 00:02:09;;;;;;;28.58;17.38;;;;;;;;;;5002137;28;20511;-78
2023/04/05 00:04:37;;;;;;;25.13;16.00;;;;;;;;;;5009589;28;20390;-78
2023/04/05 00:07:07;;;;;;;28.10;17.35;;;;;;;;;;5000715;28;20121;-78
2023/04/05 00:09:32;;;;;;;26.90;16.15;;;;;;;;;;4980943;28;20026;-79
2023/04/05 00:11:58;;;;;;;27.33;16.23;;;;;;;;;;4996834;28;20050;-78
2023/04/05 00:14:23;;;;;;;;;;;;;;;;;;4995048;28;20049;-78
2023/04/05 00:16:48;;;;;;;30.27;15.60;;;;;;;;;;5028670;28;19914;-78
2023/04/05 00:19:14;;;;;;;23.63;14.32;;;;;;;;;;4995298;28;20026;-79
2023/04/05 00:21:39;;;;;;;26.63;14.80;;;;;;;;;;4985696;28;20528;-78
2023/04/05 00:24:06;;;;;;;24.33;15.10;;;;;;;;;;4995400;28;20022;-79
2023/04/05 00:26:31;;;;;;;24.13;14.93;;;;;;;;;;4995578;28;20044;-79
2023/04/05 00:28:57;;;;;;;31.08;14.65;;;;;;;;;;4978481;28;21038;-79
2023/04/05 00:31:22;;;;;;;22.70;14.35;;;;;;;;;;4996739;28;20437;-79
2023/04/05 00:33:48;;;;;;;21.75;13.60;;;;;;;;;;4981072;28;20042;-79
2023/04/05 00:36:14;;;;;;;22.70;13.77;;;;;;;;;;4995393;28;20042;-79
2023/04/05 00:38:40;;;;;;;;;;;;;;;;;;4996851;28;20040;-79
2023/04/05 00:41:05;;;;;;;23.40;13.70;;;;;;;;;;4997738;28;19977;-78
2023/04/05 00:43:31;;;;;;;21.98;14.23;;;;;;;;;;4993010;28;20109;-78
2023/04/05 00:45:56;;;;;;;24.17;13.30;;;;;;;;;;4993039;28;20084;-78
2023/04/05 00:48:22;;;;;;;24.15;13.20;;;;;;;;;;4980690;28;20030;-78
2023/04/05 00:50:48;;;;;;;21.98;13.80;;;;;;;;;;4976760;28;20544;-79
2023/04/05 00:53:13;;;;;;;21.08;13.98;;;;;;;;;;4994288;28;20034;-79
2023/04/05 00:55:39;;;;;;;25.40;14.43;;;;;;;;;;4978749;28;20031;-79
2023/04/05 00:58:05;;;;;;;;;;;;;;;;;;4995508;28;20033;-78
2023/04/05 01:00:30;;;;;;;26.52;13.02;;;;;;;;;;4993824;28;20307;-78
2023/04/05 01:03:02;;;;;;;22.33;13.75;;;;;;;;;;4978636;28;20030;-78
2023/04/05 01:05:36;;;;;;;20.23;12.95;;;;;;;;;;4978427;28;20116;-78
2023/04/05 01:08:21;;;;;;;25.77;14.05;;;;;;;;;;4992929;28;20047;-78
2023/04/05 01:10:56;;;;;;;24.48;14.25;;;;;;;;;;4992844;28;20093;-78
2023/04/05 01:13:23;;;;;;;23.88;13.90;;;;;;;;;;4992486;28;20040;-79
2023/04/05 01:15:49;;;;;;;24.95;14.07;;;;;;;;;;4983301;28;20497;-78
2023/04/05 01:18:14;;;;;;;21.77;13.43;;;;;;;;;;4998650;28;20038;-78
2023/04/05 01:20:41;;;;;;;;;;;;;;;;;;4993201;28;20042;-78
2023/04/05 01:23:07;;;;;;;23.90;14.27;;;;;;;;;;4995473;28;20357;-78
2023/04/05 01:25:41;;;;;;;24.73;14.32;;;;;;;;;;4993143;28;20262;-77
2023/04/05 01:28:26;;;;;;;24.65;13.90;;;;;;;;;;4995913;28;20045;-76
2023/04/05 01:31:01;;;;;;;30.50;14.50;;;;;;;;;;4994236;28;20173;-78
2023/04/05 01:33:26;;;;;;;24.67;14.38;;;;;;;;;;5022971;28;20046;-79
2023/04/05 01:36:00;;;;;;;25.95;14.93;;;;;;;;;;4997240;28;20569;-79
2023/04/05 01:38:26;;;;;;;24.55;13.90;;;;;;;;;;4979168;28;20021;-77
2023/04/05 01:40:51;;;;;;;21.10;14.07;;;;;;;;;;4977599;28;20049;-77
2023/04/05 01:43:17;;;;;;;30.45;14.75;;;;;;;;;;4989854;28;20521;-77
2023/04/05 01:45:42;;;;;;;;;;;;;;;;;;4991120;28;20861;-77
2023/04/05 01:48:08;;;;;;;28.38;14.63;;;;;;;;;;4995065;28;19917;-77
2023/04/05 01:50:34;;;;;;;22.90;13.50;;;;;;;;;;4998332;28;20120;-77
2023/04/05 01:53:00;;;;;;;;;;;;;;;;;;4994195;28;20043;-77
2023/04/05 01:55:25;;;;;;;25.52;14.88;;;;;;;;;;4992916;28;20380;-77
2023/04/05 01:57:51;;;;;;;28.00;14.00;;;;;;;;;;4998623;28;20037;-77
2023/04/05 02:00:16;;;;;;;21.77;14.90;;;;;;;;;;4977451;28;20588;-77
2023/04/05 02:02:44;;;;;;;22.90;14.85;;;;;;;;;;4997492;28;20039;-78
2023/04/05 02:05:09;;;;;;;30.17;15.32;;;;;;;;;;4995349;28;20045;-78
2023/04/05 02:07:35;;;;;;;32.08;15.80;;;;;;;;;;4995620;28;20117;-78
2023/04/05 02:10:01;;;;;;;21.98;15.15;;;;;;;;;;4979936;28;20026;-79
2023/04/05 02:12:26;;;;;;;24.45;14.85;;;;;;;;;;4999280;28;20037;-78
2023/04/05 02:14:52;;;;;;;30.10;14.68;;;;;;;;;;4999770;28;20121;-78
2023/04/05 02:17:17;;;;;;;27.92;15.65;;;;;;;;;;4989327;28;20033;-78
2023/04/05 02:19:45;;;;;;;24.73;13.82;;;;;;;;;;5003454;28;20138;-78
2023/04/05 02:22:11;;;;;;;29.73;16.13;;;;;;;;;;4998149;28;20026;-78
2023/04/05 02:24:37;;;;;;;27.52;14.65;;;;;;;;;;5000561;28;20026;-77
2023/04/05 02:27:02;;;;;;;;;;;;;;;;;;5007348;28;20041;-78
2023/04/05 02:29:28;;;;;;;27.35;15.52;;;;;;;;;;5003967;28;19916;-78
2023/04/05 02:31:53;;;;;;;26.35;15.25;;;;;;;;;;5006936;28;20033;-78
2023/04/05 02:34:20;;;;;;;;;;;;;;;;;;4988972;28;20059;-78
2023/04/05 02:36:46;;;;;;;28.42;15.35;;;;;;;;;;5009858;28;19913;-78
2023/04/05 02:39:12;;;;;;;26.73;16.35;;;;;;;;;;5010251;28;20036;-78
2023/04/05 02:41:37;;;;;;;31.17;16.08;;;;;;;;;;4994136;28;20528;-78
2023/04/05 02:44:03;;;;;;;22.85;14.00;;;;;;;;;;4993308;28;20038;-78
2023/04/05 02:46:29;;;;;;;35.78;16.27;;;;;;;;;;4992886;28;20037;-78
2023/04/05 02:48:55;;;;;;;29.90;15.85;;;;;;;;;;4985647;28;20117;-78
2023/04/05 02:51:25;;;;;;;26.02;15.73;;;;;;;;;;4987405;28;20034;-78
2023/04/05 02:53:51;;;;;;;29.63;16.15;;;;;;;;;;4972052;28;20034;-78
2023/04/05 02:56:20;;;;;;;29.30;17.00;;;;;;;;;;4977573;28;20026;-78
2023/04/05 02:58:48;;;;;;;32.78;16.70;;;;;;;;;;4977916;28;20042;-78
2023/04/05 03:01:17;;;;;;;43.15;18.10;;;;;;;;;;4977393;28;20031;-79
2023/04/05 03:03:44;;;;;;;40.58;16.60;;;;;;;;;;4993040;28;20046;-78
2023/04/05 03:06:09;;;;;;;32.92;16.38;;;;;;;;;;4993935;28;20081;-78
2023/04/05 03:08:42;;;;;;;27.25;16.88;;;;;;;;;;4997271;28;20030;-78
2023/04/05 03:11:10;;;;;;;30.52;16.33;;;;;;;;;;4993827;28;20042;-78
2023/04/05 03:13:38;;;;;;;28.40;17.08;;;;;;;;;;4992596;28;20734;-78
2023/04/05 03:16:08;;;;;;;36.30;17.27;;;;;;;;;;4993314;28;20073;-78
2023/04/05 03:18:38;;;;;;;30.98;16.58;;;;;;;;;;4978008;28;20033;-78
2023/04/05 03:21:11;;;;;;;29.38;15.90;;;;;;;;;;4977008;28;20121;-78
2023/04/05 03:23:45;;;;;;;31.63;16.48;;;;;;;;;;4974799;28;20041;-79
2023/04/05 03:26:15;;;;;;;28.50;16.77;;;;;;;;;;4976499;28;20046;-78
2023/04/05 03:28:47;;;;;;;31.42;16.50;;;;;;;;;;5008908;28;20524;-79
2023/04/05 03:31:13;;;;;;;29.02;16.25;;;;;;;;;;4992289;28;20042;-78
2023/04/05 03:33:39;;;;;;;32.08;16.55;;;;;;;;;;4992281;28;20072;-78
2023/04/05 03:36:06;;;;;;;31.02;17.13;;;;;;;;;;4977050;28;20062;-79
2023/04/05 03:38:35;;;;;;;31.02;15.77;;;;;;;;;;4998111;28;20036;-78
2023/04/05 03:41:17;;;;;;;27.13;16.40;;;;;;;;;;4994705;28;20117;-78
2023/04/05 03:43:42;;;;;;;27.17;16.10;;;;;;;;;;4991798;28;20133;-78
2023/04/05 03:46:08;;;;;;;33.05;17.55;;;;;;;;;;4993275;28;20044;-78
2023/04/05 03:48:33;;;;;;;;;;;;;;;;;;4995976;28;20030;-79
2023/04/05 03:50:59;;;;;;;31.52;17.52;;;;;;;;;;4995689;28;19917;-79
2023/04/05 03:53:25;;;;;;;29.67;17.13;;;;;;;;;;4995117;28;20072;-79
2023/04/05 03:55:54;;;;;;;29.90;16.55;;;;;;;;;;4977888;28;20026;-79
2023/04/05 03:58:33;;;;;;;27.35;16.92;;;;;;;;;;4977743;28;20026;-79
2023/04/05 04:00:59;;;;;;;36.50;17.73;;;;;;;;;;4991967;28;20113;-79
2023/04/05 04:03:27;;;;;;;;;;;;;;;;;;4992094;28;20093;-79
2023/04/05 04:05:53;;;;;;;30.48;17.55;;;;;;;;;;4992591;28;19945;-79
2023/04/05 04:08:20;;;;;;;30.95;17.27;;;;;;;;;;4973341;28;20065;-78
2023/04/05 04:10:45;;;;;;;28.38;17.00;;;;;;;;;;4993747;28;20157;-78
2023/04/05 04:13:18;;;;;;;32.50;17.92;;;;;;;;;;4991273;28;20519;-79
2023/04/05 04:15:47;;;;;;;32.45;16.17;;;;;;;;;;4988882;28;20045;-78
2023/04/05 04:18:32;;;;;;;31.20;18.52;;;;;;;;;;4993247;28;20524;-78
2023/04/05 04:21:24;;;;;;;29.88;16.85;;;;;;;;;;4982076;28;20505;-78
2023/04/05 04:24:08;;;;;;;32.13;17.30;;;;;;;;;;4989809;28;20038;-78
2023/04/05 04:26:46;;;;;;;31.17;16.70;;;;;;;;;;4992443;28;20042;-78
2023/04/05 04:29:37;;;;;;;32.10;16.80;;;;;;;;;;4979069;28;20505;-78
2023/04/05 04:35:32;;;;;;;37.00;17.02;;;;;;;;;;4979945;28;20043;-79
2023/04/05 04:38:19;;;;;;;26.02;17.05;;;;;;;;;;4987570;28;20030;-77
2023/04/05 04:41:06;;;;;;;26.75;14.55;;;;;;;;;;4991660;28;20101;-79
2023/04/05 04:44:01;;;;;;;23.02;12.32;;;;;;;;;;4973665;28;20158;-78
2023/04/05 04:46:42;;;;;;;27.25;14.05;;;;;;;;;;4977481;28;20896;-79
2023/04/05 04:49:20;;;;;;;23.30;13.15;;;;;;;;;;4999559;28;20504;-80
2023/04/05 04:51:47;;;;;;;29.95;13.32;;;;;;;;;;4994343;28;20038;-80
2023/04/05 04:54:12;;;;;;;25.33;12.75;;;;;;;;;;4995605;28;20419;-80
2023/04/05 04:56:40;;;;;;;32.28;13.07;;;;;;;;;;4993718;28;20038;-80
2023/04/05 04:59:05;;;;;;;21.88;12.70;;;;;;;;;;4982880;28;20014;-80
2023/04/05 05:01:32;;;;;;;45.10;25.65;;;;;;;;;;4990986;28;20515;-80
2023/04/05 05:03:59;;;;;;;27.25;13.93;;;;;;;;;;5010005;28;20470;-80
2023/04/05 05:06:28;;;;;;;32.28;13.82;;;;;;;;;;4994615;28;20061;-80
2023/04/05 05:08:55;;;;;;;;;;;;;;;;;;4996078;28;20505;-80
2023/04/05 05:11:20;;;;;;;37.63;13.68;;;;;;;;;;4995274;28;19917;-81
2023/04/05 05:13:46;;;;;;;;;;;;;;;;;;5003944;28;20022;-80
2023/04/05 05:16:17;;;;;;;28.30;13.73;;;;;;;;;;5026191;28;19913;-81
2023/04/05 05:18:46;;;;;;;33.55;12.88;;;;;;;;;;5002026;28;20038;-80
2023/04/05 05:21:12;;;;;;;30.75;13.70;;;;;;;;;;5001592;28;20029;-81
2023/04/05 05:23:37;;;;;;;;;;;;;;;;;;5004331;28;20026;-79
2023/04/05 05:26:03;;;;;;;30.58;12.25;;;;;;;;;;5001199;28;20000;-80
2023/04/05 05:28:31;;;;;;;34.83;12.02;;;;;;;;;;4997731;28;20083;-79
2023/04/05 05:30:56;;;;;;;25.20;12.45;;;;;;;;;;4970735;28;20504;-80
2023/04/05 05:33:22;;;;;;;;;;;;;;;;;;5007857;28;20038;-81
2023/04/05 05:35:48;;;;;;;25.73;11.98;;;;;;;;;;5007965;28;19916;-80
2023/04/05 05:38:14;;;;;;;21.45;11.52;;;;;;;;;;5005324;28;20030;-77
2023/04/05 05:40:39;;;;;;;;;;;;;;;;;;4992997;28;20037;-78
2023/04/05 05:43:05;;;;;;;34.22;11.38;;;;;;;;;;4998585;28;19913;-77
2023/04/05 05:45:31;;;;;;;25.90;11.48;;;;;;;;;;4995175;28;20069;-80
2023/04/05 05:47:57;;;;;;;21.23;11.68;;;;;;;;;;4992289;28;20505;-78
2023/04/05 05:50:22;;;;;;;;;;;;;;;;;;4996592;28;20038;-79
2023/04/05 05:52:47;;;;;;;37.83;11.75;;;;;;;;;;4974683;28;19924;-78
2023/04/05 05:55:13;;;;;;;;;;;;;;;;;;4995323;28;20029;-78
2023/04/05 05:57:38;;;;;;;30.25;10.10;;;;;;;;;;4998603;28;19913;-78
2023/04/05 06:00:08;;;;;;;;;;;;;;;;;;4995195;28;20027;-79
2023/04/05 06:02:36;;;;;;;29.17;11.27;;;;;;;;;;4999194;28;19952;-80
2023/04/05 06:05:02;;;;;;;;;;;;;;;;;;4995538;28;20026;-79
2023/04/05 06:07:28;;;;;;;22.05;10.48;;;;;;;;;;5000296;28;19920;-80
2023/04/05 06:09:53;;;;;;;;;;;;;;;;;;4997066;28;20042;-80
2023/04/05 06:12:22;;;;;;;20.17;10.63;;;;;;;;;;5000889;28;19914;-80
2023/04/05 06:14:47;;;;;;;28.20;10.73;;;;;;;;;;4996593;28;20026;-79
2023/04/05 06:17:13;;;;;;;;;;;;;;;;;;4999239;28;20491;-80
2023/04/05 06:19:38;;;;;;;26.33;10.27;;;;;;;;;;4992240;28;19914;-80
2023/04/05 06:22:04;;;;;;;;;;;;;;;;;;4975285;28;20500;-80
2023/04/05 06:24:30;;;;;;;21.15;9.77;;;;;;;;;;4998157;28;20388;-78
2023/04/05 06:26:56;;;;;;;21.40;10.13;;;;;;;;;;5002211;28;20432;-78
2023/04/05 06:29:22;;;;;;;;;;;;;;;;;;4998677;28;20057;-78
2023/04/05 06:31:47;;;;;;;20.42;9.70;;;;;;;;;;4998298;28;19968;-78
2023/04/05 06:34:13;;;;;;;;;;;;;;;;;;4998231;28;20050;-79
2023/04/05 06:36:38;;;;;;;24.55;13.70;;;;;;;;;;5003221;28;19913;-78
2023/04/05 06:39:03;;;;;;;;;;;;;;;;;;4993065;28;20026;-79
2023/04/05 06:41:29;;;;;;;19.23;9.27;;;;;;;;;;4991754;28;19961;-79
2023/04/05 06:43:55;;;;;;;;;;;;;;;;;;4994771;28;20833;-79
2023/04/05 06:46:20;;;;;;;26.58;10.30;;;;;;;;;;4995359;28;19920;-79
2023/04/05 06:48:47;;;;;;;;;;;;;;;;;;4993744;28;20473;-79
2023/04/05 06:51:12;;;;;;;19.52;8.23;;;;;;;;;;4994862;28;19913;-79
2023/04/05 06:53:38;;;;;;;;;;;;;;;;;;4995980;28;20040;-79
2023/04/05 06:56:03;;;;;;;17.95;8.50;;;;;;;;;;4997003;28;19913;-79
2023/04/05 06:58:29;;;;;;;;;;;;;;;;;;4995592;28;20026;-79
2023/04/05 07:00:54;;;;;;;20.00;8.57;;;;;;;;;;4994806;28;19913;-79
2023/04/05 07:03:20;;;;;;;;;;;;;;;;;;4996649;28;20030;-80
2023/04/05 07:05:52;;;;;;;19.83;7.85;;;;;;;;;;4996705;28;19920;-79
2023/04/05 07:08:18;;;;;;;18.73;7.50;;;;;;;;;;5000555;28;20037;-79
2023/04/05 07:10:43;;;;;;;;;;;;;;;;;;5009558;28;20436;-79
2023/04/05 07:13:08;;;;;;;19.58;7.72;;;;;;;;;;4996702;28;19918;-79
2023/04/05 07:15:34;;;;;;;;;;;;;;;;;;4996407;28;20085;-80
2023/04/05 07:17:59;;;;;;;21.60;6.97;;;;;;;;;;4996810;28;20007;-80
2023/04/05 07:20:25;;;;;;;;;;;;;;;;;;4999962;28;20127;-79
2023/04/05 07:22:50;;;;;;;22.58;7.80;;;;;;;;;;4997269;28;19913;-80
2023/04/05 07:25:16;;;;;;;15.48;6.63;;;;;;;;;;4999702;28;20494;-80
2023/04/05 07:27:41;;;;;;;;;;;;;;;;;;4997780;28;20212;-80
2023/04/05 07:30:07;;;;;;;25.77;8.38;;;;;;;;;;4998483;28;19931;-80
2023/04/05 07:32:32;;;;;;;;;;;;;;;;;;4977119;28;20097;-80
2023/04/05 07:34:59;;;;;;;12.57;5.45;;;;;;;;;;4998930;28;19947;-80
2023/04/05 07:37:26;;;;;;;15.70;6.28;;;;;;;;;;4977597;28;20109;-80
2023/04/05 07:39:51;;;;;;;14.18;6.07;;;;;;;;;;4995548;28;20449;-80
2023/04/05 07:42:20;;;;;;;17.13;5.88;;;;;;;;;;4993705;28;20042;-80
2023/04/05 07:44:45;;;;;;;16.75;6.47;;;;;;;;;;4995908;28;20026;-81
2023/04/05 07:47:11;;;;;;;21.42;6.28;;;;;;;;;;4993571;28;20034;-80
2023/04/05 07:49:36;;;;;;;15.90;6.20;;;;;;;;;;4996910;28;20018;-80
2023/04/05 07:52:02;;;;;;;12.85;5.45;;;;;;;;;;4994899;28;20460;-80
2023/04/05 07:54:29;;;;;;;13.38;4.75;;;;;;;;;;4994418;28;20450;-80
2023/04/05 07:56:56;;;;;;;13.45;5.28;;;;;;;;;;4995023;28;20057;-80
2023/04/05 07:59:22;;;;;;;19.98;5.20;;;;;;;;;;4995955;28;20020;-80
2023/04/05 08:01:48;;;;;;;15.02;4.82;;;;;;;;;;4995779;28;20165;-80
2023/04/05 08:04:13;;;;;;;17.30;5.47;;;;;;;;;;4976157;28;20027;-80
2023/04/05 08:06:38;;;;;;;21.52;5.53;;;;;;;;;;4987798;28;20034;-80
2023/04/05 08:09:05;;;;;;;15.68;5.30;;;;;;;;;;4998552;28;20026;-80
2023/04/05 08:11:31;;;;;;;15.32;5.32;;;;;;;;;;4995942;28;20129;-79
2023/04/05 08:13:56;;;;;;;18.77;6.00;;;;;;;;;;4996655;28;20223;-79
2023/04/05 08:16:22;;;;;;;11.15;5.10;;;;;;;;;;4997008;28;20468;-79
2023/04/05 08:18:47;;;;;;;14.88;4.63;;;;;;;;;;4994046;28;20027;-79
2023/04/05 08:21:13;;;;;;;12.15;4.38;;;;;;;;;;4992842;28;20042;-79
2023/04/05 08:23:38;;;;;;;11.15;4.60;;;;;;;;;;4992474;28;20034;-79
2023/04/05 08:26:04;;;;;;;16.95;4.72;;;;;;;;;;4994302;28;20089;-80
2023/04/05 08:28:30;;;;;;;17.35;4.72;;;;;;;;;;4992366;28;20436;-80
2023/04/05 08:30:56;;;;;;;17.27;4.63;;;;;;;;;;4975630;28;20038;-80
2023/04/05 08:33:22;;;;;;;14.48;4.55;;;;;;;;;;4976926;28;20142;-80
2023/04/05 08:35:47;;;;;;;15.02;4.55;;;;;;;;;;4993069;28;20109;-80
2023/04/05 08:38:13;;;;;;;13.50;4.50;;;;;;;;;;4990895;28;20494;-79
2023/04/05 08:40:41;;;;;;;12.57;4.32;;;;;;;;;;4991878;28;20056;-80
2023/04/05 08:43:27;;;;;;;17.67;4.45;;;;;;;;;;5004422;28;20104;-80
2023/04/05 08:45:52;;;;;;;22.10;4.93;;;;;;;;;;5004598;28;20111;-79
2023/04/05 08:48:21;;;;;;;16.30;4.65;;;;;;;;;;5009151;28;20038;-80
2023/04/05 08:50:50;;;;;;;12.02;3.92;;;;;;;;;;5006159;28;20117;-80
2023/04/05 08:53:16;;;;;;;11.90;4.63;;;;;;;;;;5008329;28;20058;-80
2023/04/05 08:55:41;;;;;;;13.73;4.40;;;;;;;;;;5004558;28;20454;-80
2023/04/05 08:58:13;;;;;;;14.05;5.07;;;;;;;;;;5010900;28;20058;-79
2023/04/05 09:00:39;;;;;;;11.55;4.30;;;;;;;;;;5006500;28;20085;-79
2023/04/05 09:03:04;;;;;;;11.35;4.13;;;;;;;;;;4992043;28;20030;-80
2023/04/05 09:05:30;;;;;;;13.48;3.83;;;;;;;;;;4990897;28;20128;-80
2023/04/05 09:07:56;;;;;;;15.02;4.22;;;;;;;;;;4992465;28;20034;-81
2023/04/05 09:10:22;;;;;;;18.23;4.70;;;;;;;;;;4993130;28;20058;-80
2023/04/05 09:12:47;;;;;;;11.32;4.13;;;;;;;;;;4992178;28;20026;-80
2023/04/05 09:15:13;;;;;;;14.10;4.45;;;;;;;;;;4992476;28;20030;-80
2023/04/05 09:17:39;;;;;;;11.25;4.20;;;;;;;;;;4993499;28;20476;-80
2023/04/05 09:20:05;;;;;;;11.48;3.92;;;;;;;;;;4980629;28;20067;-80
2023/04/05 09:22:30;;;;;;;19.20;4.50;;;;;;;;;;4990197;28;20031;-80
2023/04/05 09:24:56;;;;;;;19.30;3.75;;;;;;;;;;4991504;28;20065;-80
2023/04/05 09:27:23;;;;;;;11.40;4.28;;;;;;;;;;4975397;28;20022;-80
2023/04/05 09:29:58;;;;;;;10.50;3.63;;;;;;;;;;4990920;28;20042;-80
2023/04/05 09:32:24;;;;;;;13.60;3.60;;;;;;;;;;4991545;28;20042;-81
2023/04/05 09:34:50;;;;;;;14.73;4.03;;;;;;;;;;4974939;28;20149;-80
2023/04/05 09:37:25;;;;;;;;;;;;;;;;;;4973389;28;20445;-81
2023/04/05 09:40:00;;;;;;;11.27;3.17;;;;;;;;;;4992536;28;20004;-80
2023/04/05 09:42:26;;;;;;;14.23;3.47;;;;;;;;;;4976679;28;20120;-81
2023/04/05 09:44:52;;;;;;;12.48;3.92;;;;;;;;;;4995166;28;20065;-79
2023/04/05 09:47:19;;;;;;;14.57;3.88;;;;;;;;;;4993862;28;20038;-79
2023/04/05 09:49:44;;;;;;;17.40;3.90;;;;;;;;;;4974642;28;20027;-79
2023/04/05 09:52:23;;;;;;;12.20;4.93;;;;;;;;;;4988083;28;20038;-81
2023/04/05 09:54:50;;;;;;;13.30;5.32;;;;;;;;;;4992848;28;20120;-80
2023/04/05 09:57:16;;;;;;;11.07;4.10;;;;;;;;;;4979081;28;20023;-80
2023/04/05 09:59:42;;;;;;;11.07;3.58;;;;;;;;;;4994648;28;20046;-80
2023/04/05 10:02:09;;;;;;;11.73;4.00;;;;;;;;;;4994805;28;20019;-80
2023/04/05 10:04:38;;;;;;;9.73;3.65;;;;;;;;;;4994052;28;20497;-80
2023/04/05 10:07:04;;;;;;;11.52;3.50;;;;;;;;;;4978217;28;20500;-80
2023/04/05 10:09:29;;;;;;;18.58;3.72;;;;;;;;;;4976559;28;20039;-81
2023/04/05 10:11:55;;;;;;;12.52;3.90;;;;;;;;;;4994577;28;20026;-80
2023/04/05 10:14:21;;;;;;;9.85;3.28;;;;;;;;;;4992387;28;20092;-81
2023/04/05 10:16:46;;;;;;;10.32;3.00;;;;;;;;;;4995023;28;20022;-80
2023/04/05 10:19:15;;;;;;;12.75;3.97;;;;;;;;;;4997369;28;20489;-80
2023/04/05 10:21:41;;;;;;;11.52;3.05;;;;;;;;;;4998706;28;20096;-81
2023/04/05 10:24:06;;;;;;;9.70;3.80;;;;;;;;;;4996436;28;20441;-81
2023/04/05 10:27:10;;;;;;;11.38;3.33;;;;;;;;;;4999179;28;20462;-80
2023/04/05 10:29:54;;;;;;;17.42;3.50;;;;;;;;;;4956661;28;20084;-79
2023/04/05 10:32:32;;;;;;;16.23;3.42;;;;;;;;;;4966091;28;20050;-79
2023/04/05 10:35:04;;;;;;;8.93;3.22;;;;;;;;;;4983188;28;20544;-81
2023/04/05 10:37:35;;;;;;;15.45;4.18;;;;;;;;;;4996671;28;20576;-81
2023/04/05 10:40:02;;;;;;;16.10;3.70;;;;;;;;;;4995481;28;20137;-79
2023/04/05 10:42:27;;;;;;;8.93;3.05;;;;;;;;;;4993951;28;20040;-79
2023/04/05 10:44:59;;;;;;;10.90;3.05;;;;;;;;;;4993126;28;20117;-80
2023/04/05 10:47:25;;;;;;;13.50;5.05;;;;;;;;;;4978108;28;20525;-81
2023/04/05 10:49:52;;;;;;;19.42;4.82;;;;;;;;;;4995160;28;20489;-80
2023/04/05 10:52:17;;;;;;;9.60;3.42;;;;;;;;;;4996520;28;20453;-79
2023/04/05 10:54:43;;;;;;;13.80;4.32;;;;;;;;;;4999298;28;20061;-81
2023/04/05 10:57:09;;;;;;;10.68;3.67;;;;;;;;;;4995312;28;20117;-81
2023/04/05 10:59:34;;;;;;;14.60;3.90;;;;;;;;;;4995686;28;20029;-81
2023/04/05 11:02:01;;;;;;;10.15;3.95;;;;;;;;;;4993969;28;20042;-79
2023/04/05 11:04:26;;;;;;;8.50;3.08;;;;;;;;;;4993620;28;20109;-79
2023/04/05 11:07:10;;;;;;;13.80;3.45;;;;;;;;;;4994820;28;20164;-79
2023/04/05 11:09:36;;;;;;;8.00;2.72;;;;;;;;;;4985546;28;20045;-79
2023/04/05 11:12:01;;;;;;;17.52;3.65;;;;;;;;;;4993805;28;20022;-81
2023/04/05 11:14:36;;;;;;;10.45;3.15;;;;;;;;;;4994697;28;20081;-79
2023/04/05 11:17:02;;;;;;;17.43;3.47;;;;;;;;;;4995140;28;20041;-80
2023/04/05 11:19:43;;;;;;;14.35;3.72;;;;;;;;;;4998337;28;20745;-80
2023/04/05 11:22:12;;;;;;;9.02;3.65;;;;;;;;;;4990435;28;20394;-80
2023/04/05 11:24:52;;;;;;;11.25;3.30;;;;;;;;;;4996340;28;20034;-80
2023/04/05 11:27:23;;;;;;;9.93;3.50;;;;;;;;;;4975614;28;20490;-80
2023/04/05 11:29:49;;;;;;;16.73;4.10;;;;;;;;;;4992829;28;20093;-80
2023/04/05 11:32:15;;;;;;;13.93;3.95;;;;;;;;;;4993154;28;20026;-80
2023/04/05 11:34:41;;;;;;;13.35;3.00;;;;;;;;;;4993830;28;20588;-81
2023/04/05 11:37:06;;;;;;;8.98;3.25;;;;;;;;;;4977101;28;20034;-83
2023/04/05 11:39:32;;;;;;;14.18;3.30;;;;;;;;;;4994061;28;20085;-84
2023/04/05 11:42:00;;;;;;;12.88;3.78;;;;;;;;;;4992700;28;20482;-83
2023/04/05 11:44:27;;;;;;;11.60;3.30;;;;;;;;;;4994466;28;20113;-83
2023/04/05 11:46:52;;;;;;;13.07;3.72;;;;;;;;;;4993532;28;20030;-83
2023/04/05 11:49:19;;;;;;;13.80;3.58;;;;;;;;;;4976777;28;20045;-84
2023/04/05 11:51:47;;;;;;;16.25;3.45;;;;;;;;;;4977169;28;20393;-84
2023/04/05 11:54:13;;;;;;;16.73;3.72;;;;;;;;;;4995585;28;20030;-86
2023/04/05 11:56:40;;;;;;;9.23;2.83;;;;;;;;;;4975718;28;20027;-83
2023/04/05 11:59:06;;;;;;;13.60;3.80;;;;;;;;;;4979712;28;20061;-83
2023/04/05 12:01:31;;;;;;;9.68;3.25;;;;;;;;;;4983896;28;20108;-83
2023/04/05 12:03:57;;;;;;;11.82;2.83;;;;;;;;;;4995928;28;20096;-84
2023/04/05 12:06:23;;;;;;;11.68;2.70;;;;;;;;;;5008059;28;20022;-85
2023/04/05 12:08:52;;;;;;;10.93;2.92;;;;;;;;;;4991963;28;20093;-84
2023/04/05 12:11:27;;;;;;;16.83;4.80;;;;;;;;;;4972776;28;20062;-85
2023/04/05 12:13:53;;;;;;;12.77;4.43;;;;;;;;;;4991640;28;20116;-84
2023/04/05 12:16:18;;;;;;;12.60;3.28;;;;;;;;;;4974850;28;20494;-85
2023/04/05 12:18:44;;;;;;;14.95;2.92;;;;;;;;;;4975404;28;20041;-84
2023/04/05 12:21:09;;;;;;;13.02;3.85;;;;;;;;;;4975023;28;20026;-84
2023/04/05 12:23:36;;;;;;;14.27;3.58;;;;;;;;;;4991773;28;20026;-85
2023/04/05 12:26:01;;;;;;;9.95;3.08;;;;;;;;;;4959846;28;20064;-84
2023/04/05 12:28:48;;;;;;;11.88;2.70;;;;;;;;;;4992152;28;20065;-84
2023/04/05 12:31:13;;;;;;;14.95;3.30;;;;;;;;;;4992968;28;20039;-84
2023/04/05 12:33:39;;;;;;;15.82;3.40;;;;;;;;;;4992298;28;20138;-85
2023/04/05 12:36:05;;;;;;;9.48;3.03;;;;;;;;;;4993823;28;20038;-84
2023/04/05 12:38:30;;;;;;;11.25;2.97;;;;;;;;;;4993375;28;20025;-84
2023/04/05 12:41:00;;;;;;;7.25;2.90;;;;;;;;;;4977026;28;20040;-84
2023/04/05 12:43:25;;;;;;;12.02;3.47;;;;;;;;;;4994129;28;20437;-84
2023/04/05 12:45:55;;;;;;;41.40;6.07;;;;;;;;;;4975699;28;20044;-84
2023/04/05 12:48:21;;;;;;;9.43;2.95;;;;;;;;;;4976244;28;20049;-84
2023/04/05 12:50:47;;;;;;;7.72;3.00;;;;;;;;;;4976830;28;20104;-85
2023/04/05 12:53:19;;;;;;;10.85;3.20;;;;;;;;;;4976335;28;20026;-85
2023/04/05 12:55:49;;;;;;;11.73;3.22;;;;;;;;;;4976122;28;20445;-85
2023/04/05 12:58:16;;;;;;;8.02;2.70;;;;;;;;;;4991904;28;20501;-85
2023/04/05 13:00:42;;;;;;;11.00;2.60;;;;;;;;;;4991964;28;20045;-85
2023/04/05 13:03:13;;;;;;;13.65;2.70;;;;;;;;;;4975797;28;20018;-85
2023/04/05 13:05:39;;;;;;;12.45;2.97;;;;;;;;;;4974877;28;20038;-85
2023/04/05 13:08:05;;;;;;;6.95;2.58;;;;;;;;;;4993254;28;20117;-84
2023/04/05 13:10:30;;;;;;;10.75;2.78;;;;;;;;;;4990740;28;20040;-84
2023/04/05 13:12:55;;;;;;;8.20;3.13;;;;;;;;;;4990799;28;20088;-85
2023/04/05 13:15:21;;;;;;;6.05;2.83;;;;;;;;;;4972541;28;20126;-82
2023/04/05 13:17:48;;;;;;;9.98;3.00;;;;;;;;;;4990511;28;20030;-84
2023/04/05 13:20:14;;;;;;;11.63;2.92;;;;;;;;;;4992295;28;20493;-84
2023/04/05 13:22:40;;;;;;;11.80;2.85;;;;;;;;;;4992838;28;20081;-84
2023/04/05 13:25:05;;;;;;;11.32;2.90;;;;;;;;;;4993562;28;20084;-84
2023/04/05 13:27:31;;;;;;;10.77;3.17;;;;;;;;;;4991738;28;20034;-84
2023/04/05 13:29:56;;;;;;;10.23;2.88;;;;;;;;;;4975410;28;20056;-84
2023/04/05 13:32:22;;;;;;;8.85;3.78;;;;;;;;;;4993026;28;20034;-83
2023/04/05 13:34:48;;;;;;;18.35;3.25;;;;;;;;;;4975144;28;20054;-84
2023/04/05 13:37:14;;;;;;;13.07;3.47;;;;;;;;;;4992922;28;20033;-84
2023/04/05 13:39:39;;;;;;;10.63;3.17;;;;;;;;;;4992573;28;20117;-84
2023/04/05 13:42:05;;;;;;;13.55;3.92;;;;;;;;;;4992774;28;20030;-84
2023/04/05 13:44:30;;;;;;;9.02;3.38;;;;;;;;;;4990797;28;20109;-84
2023/04/05 13:46:56;;;;;;;12.00;3.40;;;;;;;;;;4990684;28;20042;-84
2023/04/05 13:49:21;;;;;;;13.73;3.10;;;;;;;;;;4990679;28;20405;-84
2023/04/05 13:51:46;;;;;;;13.18;3.38;;;;;;;;;;4991231;28;20042;-84
2023/04/05 13:54:12;;;;;;;13.57;3.65;;;;;;;;;;4993953;28;20026;-85
2023/04/05 13:56:38;;;;;;;26.33;5.45;;;;;;;;;;4996456;28;20178;-83
2023/04/05 13:59:03;;;;;;;10.70;3.80;;;;;;;;;;4997202;28;20022;-85
2023/04/05 14:01:29;;;;;;;12.50;3.60;;;;;;;;;;4998866;28;20517;-83
2023/04/05 14:03:54;;;;;;;16.50;4.18;;;;;;;;;;5001060;28;20116;-84
2023/04/05 14:06:20;;;;;;;9.70;3.20;;;;;;;;;;5001237;28;20038;-85
2023/04/05 14:08:45;;;;;;;12.02;3.17;;;;;;;;;;4999574;28;20076;-85
2023/04/05 14:11:11;;;;;;;14.98;3.60;;;;;;;;;;4998697;28;20471;-85
2023/04/05 14:13:36;;;;;;;9.88;4.28;;;;;;;;;;5003894;28;20030;-83
2023/04/05 14:16:02;;;;;;;9.43;4.07;;;;;;;;;;4994884;28;20038;-85
2023/04/05 14:18:27;;;;;;;13.95;3.63;;;;;;;;;;4995090;28;20026;-84
2023/04/05 14:20:55;;;;;;;16.55;4.38;;;;;;;;;;4996053;28;20435;-84
2023/04/05 14:23:20;;;;;;;15.27;3.70;;;;;;;;;;4996275;28;20038;-83
2023/04/05 14:25:46;;;;;;;14.50;4.10;;;;;;;;;;4994093;28;20042;-84
2023/04/05 14:28:11;;;;;;;17.65;4.60;;;;;;;;;;4973401;28;20062;-84
2023/04/05 14:30:37;;;;;;;8.48;3.90;;;;;;;;;;5009033;28;20053;-84
2023/04/05 14:33:02;;;;;;;11.18;3.95;;;;;;;;;;4994374;28;20058;-84
2023/04/05 14:35:28;;;;;;;19.20;4.93;;;;;;;;;;4995506;28;20030;-84
2023/04/05 14:37:53;;;;;;;19.88;4.15;;;;;;;;;;4995920;28;20030;-84
2023/04/05 14:40:19;;;;;;;23.50;5.22;;;;;;;;;;4994359;28;20046;-83
2023/04/05 14:42:44;;;;;;;29.63;5.13;;;;;;;;;;4995521;28;20455;-84
2023/04/05 14:45:10;;;;;;;16.10;5.07;;;;;;;;;;4995512;28;20067;-83